createdAt,value
2023-04-15T00:01:37.373Z,5.34
2023-04-15T00:04:10.510Z,5.19
2023-04-15T00:06:43.263Z,5.28
2023-04-15T00:09:16.505Z,5.25
2023-04-15T00:11:51.338Z,5.15
2023-04-15T00:14:26.663Z,5.15
2023-04-15T00:16:59.127Z,5.08
2023-04-15T00:19:33.038Z,5.13
2023-04-15T00:22:06.337Z,5.12
2023-04-15T00:24:39.470Z,5.12
2023-04-15T00:27:11.976Z,5.06
2023-04-15T00:29:46.225Z,5.09
2023-04-15T00:32:19.192Z,5.08
2023-04-15T00:34:53.012Z,5.03
2023-04-15T00:37:25.636Z,4.87
2023-04-15T00:39:58.711Z,5.01
2023-04-15T00:42:31.868Z,4.99
2023-04-15T00:45:07.610Z,4.98
2023-04-15T00:47:43.230Z,4.97
2023-04-15T00:50:16.374Z,4.92
2023-04-15T00:52:49.650Z,4.86
2023-04-15T00:55:23.097Z,4.84
2023-04-15T00:57:56.397Z,4.84
2023-04-15T01:00:30.692Z,4.86
2023-04-15T01:03:04.641Z,4.86
2023-04-15T01:05:39.127Z,4.83
2023-04-15T01:08:12.051Z,4.82
2023-04-15T01:10:45.948Z,4.67
2023-04-15T01:13:18.544Z,4.68
2023-04-15T01:15:53.926Z,4.65
2023-04-15T01:18:27.410Z,4.67
2023-04-15T01:21:02.754Z,4.68
2023-04-15T01:23:38.703Z,4.67
2023-04-15T01:26:14.248Z,4.57
2023-04-15T01:28:47.419Z,4.55
2023-04-15T01:31:20.277Z,4.51
2023-04-15T01:33:53.365Z,4.38
2023-04-15T01:36:44.659Z,4.33
2023-04-15T01:39:17.366Z,4.36
2023-04-15T01:41:51.918Z,4.35
2023-04-15T01:44:26.588Z,4.36
2023-04-15T01:47:01.202Z,4.29
2023-04-15T01:49:34.974Z,4.33
2023-04-15T01:52:09.733Z,4.35
2023-04-15T01:54:43.517Z,4.23
2023-04-15T01:57:20.640Z,4.34
2023-04-15T01:59:54.313Z,4.34
2023-04-15T02:02:28.716Z,4.34
2023-04-15T02:05:04.987Z,4.36
2023-04-15T02:07:39.167Z,4.38
2023-04-15T02:10:13.745Z,4.37
2023-04-15T02:12:49.311Z,4.36
2023-04-15T02:15:23.079Z,4.36
2023-04-15T02:17:57.606Z,4.23
2023-04-15T02:20:32.315Z,4.36
2023-04-15T02:23:07.934Z,4.23
2023-04-15T02:25:42.257Z,4.27
2023-04-15T02:28:29.007Z,4.26
2023-04-15T02:31:06.678Z,4.18
2023-04-15T02:33:40.859Z,4.16
2023-04-15T02:36:15.028Z,4.28
2023-04-15T02:38:48.928Z,4.28
2023-04-15T02:41:27.757Z,4.24
2023-04-15T02:44:02.747Z,4.29
2023-04-15T02:46:37.830Z,4.23
2023-04-15T02:49:12.258Z,4.18
2023-04-15T02:51:49.660Z,4.28
2023-04-15T02:54:24.369Z,4.26
2023-04-15T02:56:58.196Z,4.26
2023-04-15T02:59:34.043Z,4.24
2023-04-15T03:02:08.640Z,4.20
2023-04-15T03:04:43.039Z,4.16
2023-04-15T03:07:18.466Z,4.16
2023-04-15T03:09:53.300Z,4.11
2023-04-15T03:12:26.901Z,4.10
2023-04-15T03:15:05.206Z,4.17
2023-04-15T03:17:44.025Z,4.17
2023-04-15T03:20:18.650Z,4.05
2023-04-15T03:22:52.425Z,4.09
2023-04-15T03:25:30.040Z,4.07
2023-04-15T03:28:04.081Z,4.08
2023-04-15T03:30:39.749Z,4.06
2023-04-15T03:33:13.378Z,4.12
2023-04-15T03:35:47.840Z,4.11
2023-04-15T03:38:21.931Z,4.14
2023-04-15T03:40:55.868Z,4.11
2023-04-15T03:43:29.800Z,4.13
2023-04-15T03:46:05.487Z,4.13
2023-04-15T03:48:39.398Z,4.10
2023-04-15T03:51:13.790Z,4.13
2023-04-15T03:53:47.613Z,4.14
2023-04-15T03:56:21.666Z,4.16
2023-04-15T03:58:55.921Z,4.21
2023-04-15T04:01:31.797Z,4.22
2023-04-15T04:04:05.948Z,4.32
2023-04-15T04:06:39.982Z,4.30
2023-04-15T04:09:14.199Z,4.30
2023-04-15T04:11:48.140Z,4.35
2023-04-15T04:14:27.106Z,4.50
2023-04-15T04:17:02.525Z,4.55
2023-04-15T04:19:36.515Z,4.54
2023-04-15T04:22:10.568Z,4.60
2023-04-15T04:24:44.175Z,4.59
2023-04-15T04:27:18.514Z,4.61
2023-04-15T04:29:52.098Z,4.64
2023-04-15T04:32:27.835Z,4.62
2023-04-15T04:35:01.756Z,4.64
2023-04-15T04:37:35.767Z,4.59
2023-04-15T04:40:10.930Z,4.54
2023-04-15T04:42:44.938Z,4.43
2023-04-15T04:45:18.981Z,4.56
2023-04-15T04:47:54.636Z,4.57
2023-04-15T04:50:28.388Z,4.28
2023-04-15T04:53:02.400Z,4.52
2023-04-15T04:55:39.630Z,4.59
2023-04-15T04:58:13.272Z,4.61
2023-04-15T05:00:47.384Z,4.62
2023-04-15T05:03:23.493Z,4.57
2023-04-15T05:05:57.763Z,4.59
2023-04-15T05:08:31.578Z,4.65
2023-04-15T05:11:05.843Z,4.66
2023-04-15T05:13:39.504Z,4.78
2023-04-15T05:16:13.680Z,4.83
2023-04-15T05:18:48.899Z,4.93
2023-04-15T05:21:23.014Z,5.02
2023-04-15T05:23:56.989Z,5.12
2023-04-15T05:26:30.998Z,5.17
2023-04-15T05:29:04.656Z,5.26
2023-04-15T05:31:39.025Z,5.32
2023-04-15T05:34:16.038Z,5.44
2023-04-15T05:36:49.942Z,5.50
2023-04-15T05:39:24.023Z,5.50
2023-04-15T05:41:58.586Z,5.51
2023-04-15T05:44:33.260Z,5.50
2023-04-15T05:47:08.403Z,5.59
2023-04-15T05:49:43.412Z,5.37
2023-04-15T05:52:17.923Z,5.76
2023-04-15T05:54:52.999Z,5.87
2023-04-15T05:57:27.518Z,5.97
2023-04-15T06:00:01.769Z,6.02
2023-04-15T06:02:43.932Z,5.96
2023-04-15T06:05:19.443Z,5.94
2023-04-15T06:07:53.635Z,5.89
2023-04-15T06:10:27.294Z,5.63
2023-04-15T06:13:01.535Z,5.88
2023-04-15T06:15:35.615Z,5.94
2023-04-15T06:18:11.470Z,5.99
2023-04-15T06:20:46.985Z,5.95
2023-04-15T06:23:20.614Z,5.92
2023-04-15T06:25:54.535Z,6.13
2023-04-15T06:28:28.446Z,6.32
2023-04-15T06:31:02.851Z,6.45
2023-04-15T06:33:36.788Z,6.58
2023-04-15T06:36:12.562Z,6.61
2023-04-15T06:38:46.282Z,6.56
2023-04-15T06:41:20.550Z,6.61
2023-04-15T06:43:55.893Z,6.66
2023-04-15T06:46:30.253Z,6.74
2023-04-15T06:49:04.145Z,6.62
2023-04-15T06:51:39.907Z,6.63
2023-04-15T06:54:13.614Z,6.59
2023-04-15T06:56:48.598Z,6.52
2023-04-15T06:59:22.384Z,6.31
2023-04-15T07:01:56.461Z,6.37
2023-04-15T07:04:30.951Z,6.26
2023-04-15T07:07:06.307Z,6.27
2023-04-15T07:09:40.153Z,6.30
2023-04-15T07:12:15.770Z,6.30
2023-04-15T07:14:49.718Z,6.35
2023-04-15T07:17:24.094Z,6.28
2023-04-15T07:19:57.966Z,6.33
2023-04-15T07:22:34.291Z,6.34
2023-04-15T07:25:09.332Z,6.43
2023-04-15T07:27:43.473Z,6.48
2023-04-15T07:30:17.710Z,6.40
2023-04-15T07:32:51.571Z,6.49
2023-04-15T07:35:26.831Z,6.52
2023-04-15T07:38:03.277Z,6.59
2023-04-15T07:40:36.949Z,6.67
2023-04-15T07:43:11.272Z,6.60
2023-04-15T07:45:45.318Z,6.71
2023-04-15T07:48:19.633Z,6.69
2023-04-15T07:50:53.662Z,6.71
2023-04-15T07:53:29.402Z,6.70
2023-04-15T07:56:03.084Z,6.75
2023-04-15T07:58:37.829Z,6.75
2023-04-15T08:01:11.872Z,6.74
2023-04-15T08:03:46.092Z,6.82
2023-04-15T08:06:20.158Z,6.79
2023-04-15T08:08:55.955Z,6.88
2023-04-15T08:11:29.865Z,6.93
2023-04-15T08:14:04.141Z,6.96
2023-04-15T08:16:38.118Z,6.96
2023-04-15T08:19:12.181Z,6.97
2023-04-15T08:21:46.937Z,6.97
2023-04-15T08:24:22.191Z,6.88
2023-04-15T08:26:58.114Z,6.89
2023-04-15T08:29:32.074Z,6.85
2023-04-15T08:32:06.990Z,6.76
2023-04-15T08:34:40.631Z,6.87
2023-04-15T08:37:14.952Z,6.87
2023-04-15T08:39:50.195Z,6.87
2023-04-15T08:42:31.495Z,6.90
2023-04-15T08:45:06.199Z,6.96
2023-04-15T08:47:41.590Z,6.79
2023-04-15T08:50:16.955Z,7.09
2023-04-15T08:52:54.133Z,7.12
2023-04-15T08:55:33.795Z,7.23
2023-04-15T08:58:08.476Z,7.33
2023-04-15T09:00:42.877Z,7.36
2023-04-15T09:03:18.258Z,7.41
2023-04-15T09:05:53.258Z,7.44
2023-04-15T09:08:27.391Z,7.38
2023-04-15T09:11:03.199Z,7.48
2023-04-15T09:13:37.700Z,7.53
2023-04-15T09:16:11.427Z,7.46
2023-04-15T09:18:45.546Z,7.54
2023-04-15T09:21:19.677Z,7.63
2023-04-15T09:23:58.727Z,7.55
2023-04-15T09:26:35.869Z,7.64
2023-04-15T09:29:13.840Z,7.64
2023-04-15T09:31:47.792Z,7.67
2023-04-15T09:34:22.203Z,7.70
2023-04-15T09:36:57.362Z,7.76
2023-04-15T09:39:46.440Z,7.81
2023-04-15T09:42:25.306Z,7.84
2023-04-15T09:45:09.545Z,7.83
2023-04-15T09:47:43.793Z,7.91
2023-04-15T09:50:18.642Z,7.95
2023-04-15T09:52:52.306Z,8.02
2023-04-15T09:55:25.917Z,8.00
2023-04-15T09:58:01.234Z,8.09
2023-04-15T10:00:36.826Z,8.13
2023-04-15T10:03:11.800Z,8.16
2023-04-15T10:05:48.070Z,8.16
2023-04-15T10:08:25.131Z,8.17
2023-04-15T10:11:00.918Z,8.18
2023-04-15T10:13:38.306Z,8.23
2023-04-15T10:16:16.312Z,8.26
2023-04-15T10:18:55.472Z,8.37
2023-04-15T10:21:31.025Z,8.39
2023-04-15T10:24:06.540Z,8.40
2023-04-15T10:26:40.764Z,8.44
2023-04-15T10:29:16.870Z,8.43
2023-04-15T10:31:51.982Z,8.40
2023-04-15T10:34:27.246Z,8.41
2023-04-15T10:37:04.069Z,8.41
2023-04-15T10:39:43.576Z,8.42
2023-04-15T10:42:19.397Z,8.39
2023-04-15T10:44:57.897Z,8.40
2023-04-15T10:47:32.983Z,8.38
2023-04-15T10:50:08.870Z,8.38
2023-04-15T10:52:42.854Z,8.46
2023-04-15T10:55:20.872Z,8.51
2023-04-15T10:57:56.358Z,8.54
2023-04-15T11:00:33.433Z,8.43
2023-04-15T11:03:08.565Z,8.48
2023-04-15T11:05:53.392Z,8.65
2023-04-15T11:08:54.434Z,8.68
2023-04-15T11:12:05.340Z,8.71
2023-04-15T11:14:43.359Z,8.50
2023-04-15T11:17:29.500Z,8.75
2023-04-15T11:20:04.757Z,8.69
2023-04-15T11:22:39.005Z,8.82
2023-04-15T11:25:22.879Z,8.85
2023-04-15T11:27:57.921Z,8.83
2023-04-15T11:30:33.699Z,8.87
2023-04-15T11:33:12.340Z,8.86
2023-04-15T11:35:46.033Z,8.81
2023-04-15T11:38:20.015Z,8.83
2023-04-15T11:40:54.019Z,8.85
2023-04-15T11:43:28.636Z,8.87
2023-04-15T11:46:03.684Z,8.85
2023-04-15T11:48:43.668Z,8.88
2023-04-15T11:51:17.809Z,8.93
2023-04-15T11:53:52.434Z,8.93
2023-04-15T11:56:28.576Z,8.94
2023-04-15T11:59:04.123Z,8.96
2023-04-15T12:01:39.588Z,9.01
2023-04-15T12:04:15.136Z,8.97
2023-04-15T12:06:49.024Z,8.91
2023-04-15T12:09:22.150Z,9.05
2023-04-15T12:11:58.552Z,9.07
2023-04-15T12:14:33.099Z,9.12
2023-04-15T12:17:07.209Z,9.16
2023-04-15T12:19:43.458Z,9.17
2023-04-15T12:22:17.066Z,9.17
2023-04-15T12:24:57.292Z,9.16
2023-04-15T12:27:32.607Z,9.17
2023-04-15T12:30:07.106Z,9.10
2023-04-15T12:32:42.169Z,9.15
2023-04-15T12:35:19.569Z,9.13
2023-04-15T12:37:52.807Z,9.21
2023-04-15T12:40:26.013Z,9.21
2023-04-15T12:42:58.548Z,9.23
2023-04-15T12:45:31.892Z,9.26
2023-04-15T12:48:04.696Z,9.29
2023-04-15T12:50:38.835Z,9.29
2023-04-15T12:53:11.745Z,9.32
2023-04-15T12:55:44.977Z,9.34
2023-04-15T12:58:17.595Z,9.34
2023-04-15T13:00:50.841Z,9.35
2023-04-15T13:03:24.088Z,9.35
2023-04-15T13:05:58.478Z,9.36
2023-04-15T13:08:31.305Z,9.35
2023-04-15T13:11:04.390Z,9.37
2023-04-15T13:13:37.320Z,9.38
2023-04-15T13:16:10.554Z,9.34
2023-04-15T13:18:43.620Z,9.33
2023-04-15T13:21:18.652Z,9.36
2023-04-15T13:23:51.695Z,9.32
2023-04-15T13:26:24.624Z,9.34
2023-04-15T13:28:57.897Z,9.37
2023-04-15T13:31:30.935Z,9.41
2023-04-15T13:34:04.083Z,9.44
2023-04-15T13:36:38.281Z,9.43
2023-04-15T13:39:11.506Z,9.46
2023-04-15T13:41:44.475Z,9.42
2023-04-15T13:44:17.060Z,9.45
2023-04-15T13:46:53.186Z,9.45
2023-04-15T13:49:26.026Z,9.45
2023-04-15T13:52:00.424Z,9.41
2023-04-15T13:54:37.022Z,9.45
2023-04-15T13:57:11.070Z,9.47
2023-04-15T13:59:44.676Z,9.47
2023-04-15T14:02:17.727Z,9.45
2023-04-15T14:04:50.626Z,9.34
2023-04-15T14:07:25.199Z,9.48
2023-04-15T14:09:58.089Z,9.48
2023-04-15T14:12:31.665Z,9.50
2023-04-15T14:15:05.624Z,9.52
2023-04-15T14:17:38.881Z,9.52
2023-04-15T14:20:13.533Z,9.47
2023-04-15T14:22:48.502Z,9.58
2023-04-15T14:25:32.829Z,9.60
2023-04-15T14:28:06.246Z,9.62
2023-04-15T14:30:39.377Z,9.63
2023-04-15T14:33:11.919Z,9.62
2023-04-15T14:35:45.450Z,9.61
2023-04-15T14:38:19.365Z,9.60
2023-04-15T14:40:52.253Z,9.57
2023-04-15T14:43:24.841Z,9.56
2023-04-15T14:45:58.534Z,9.58
2023-04-15T14:48:32.049Z,9.50
2023-04-15T14:51:05.195Z,9.57
2023-04-15T14:53:39.789Z,9.56
2023-04-15T14:56:12.987Z,9.56
2023-04-15T14:58:45.582Z,9.54
2023-04-15T15:01:18.597Z,9.52
2023-04-15T15:03:51.581Z,9.37
2023-04-15T15:06:24.839Z,9.48
2023-04-15T15:08:58.901Z,9.46
2023-04-15T15:11:32.329Z,9.41
2023-04-15T15:14:05.000Z,9.19
2023-04-15T15:16:38.184Z,9.39
2023-04-15T15:19:11.216Z,9.35
2023-04-15T15:21:44.138Z,9.32
2023-04-15T15:24:18.078Z,9.26
2023-04-15T15:26:51.328Z,9.25
2023-04-15T15:29:23.987Z,9.23
2023-04-15T15:31:57.136Z,9.19
2023-04-15T15:34:29.796Z,9.13
2023-04-15T15:37:02.701Z,9.17
2023-04-15T15:39:37.187Z,9.15
2023-04-15T15:42:09.853Z,9.10
2023-04-15T15:44:42.663Z,9.11
2023-04-15T15:47:16.553Z,9.09
2023-04-15T15:49:49.283Z,9.05
2023-04-15T15:52:22.785Z,9.02
2023-04-15T15:54:56.855Z,8.97
2023-04-15T15:57:30.417Z,8.98
2023-04-15T16:05:21.229Z,8.88
2023-04-15T16:07:53.768Z,8.81
2023-04-15T16:10:30.849Z,8.82
2023-04-15T16:13:05.054Z,8.79
2023-04-15T16:15:38.106Z,8.75
2023-04-15T16:18:10.577Z,8.72
2023-04-15T16:20:43.504Z,8.68
2023-04-15T16:23:17.347Z,8.65
2023-04-15T16:25:52.205Z,8.56
2023-04-15T16:28:27.218Z,8.58
2023-04-15T16:31:00.250Z,8.54
2023-04-15T16:33:33.446Z,8.50
2023-04-15T16:36:06.275Z,8.45
2023-04-15T16:38:39.152Z,8.41
2023-04-15T16:41:13.505Z,8.32
2023-04-15T16:43:46.884Z,8.30
2023-04-15T16:46:20.194Z,8.23
2023-04-15T16:48:53.097Z,8.19
2023-04-15T16:51:27.088Z,8.19
2023-04-15T16:53:59.709Z,8.14
2023-04-15T16:56:34.181Z,8.08
2023-04-15T16:59:08.518Z,8.05
2023-04-15T17:01:41.554Z,8.02
2023-04-15T17:04:14.559Z,7.99
2023-04-15T17:06:47.893Z,7.96
2023-04-15T17:09:20.598Z,7.93
2023-04-15T17:11:55.352Z,7.88
2023-04-15T17:14:28.716Z,7.84
2023-04-15T17:17:02.391Z,7.71
2023-04-15T17:19:42.278Z,7.76
2023-04-15T17:22:23.648Z,7.68
2023-04-15T17:24:57.369Z,7.67
2023-04-15T17:27:33.347Z,7.63
2023-04-15T17:30:13.858Z,7.59
2023-04-15T17:33:50.561Z,7.56
2023-04-15T17:36:20.113Z,7.51
2023-04-15T17:39:14.240Z,7.42
2023-04-15T17:41:46.972Z,7.44
2023-04-15T17:44:41.363Z,7.37
2023-04-15T17:47:34.146Z,7.23
2023-04-15T17:50:27.018Z,7.24
2023-04-15T17:53:19.776Z,7.22
2023-04-15T17:56:12.526Z,7.13
2023-04-15T17:59:06.801Z,7.04
2023-04-15T18:02:01.555Z,6.99
2023-04-15T18:04:54.496Z,6.92
2023-04-15T18:07:47.039Z,6.85
2023-04-15T18:10:39.959Z,6.82
2023-04-15T18:13:32.704Z,6.77
2023-04-15T18:16:26.827Z,6.64
2023-04-15T18:19:23.254Z,6.71
2023-04-15T18:21:56.486Z,6.65
2023-04-15T18:24:29.356Z,6.64
2023-04-15T18:27:02.958Z,6.60
2023-04-15T18:29:36.613Z,6.61
2023-04-15T18:32:09.515Z,6.57
2023-04-15T18:34:43.751Z,6.59
2023-04-15T18:37:16.887Z,6.51
2023-04-15T18:39:49.351Z,6.55
2023-04-15T18:42:22.663Z,6.59
2023-04-15T18:44:55.742Z,6.58
2023-04-15T18:47:28.961Z,6.55
2023-04-15T18:50:03.200Z,6.56
2023-04-15T18:52:36.914Z,6.54
2023-04-15T18:55:09.610Z,6.51
2023-04-15T18:57:44.985Z,6.48
2023-04-15T19:00:18.264Z,6.51
2023-04-15T19:02:51.853Z,6.48
2023-04-15T19:05:26.318Z,6.46
2023-04-15T19:08:02.284Z,6.43
2023-04-15T19:10:35.595Z,6.38
2023-04-15T19:13:08.844Z,6.37
2023-04-15T19:15:41.481Z,6.31
2023-04-15T19:18:14.034Z,6.31
2023-04-15T19:20:50.386Z,6.34
2023-04-15T19:23:24.213Z,6.32
2023-04-15T19:25:57.508Z,6.25
2023-04-15T19:28:30.905Z,6.31
2023-04-15T19:31:03.523Z,6.28
2023-04-15T19:33:36.719Z,6.30
2023-04-15T19:36:10.862Z,6.32
2023-04-15T19:38:44.024Z,6.33
2023-04-15T19:41:16.425Z,6.23
2023-04-15T19:43:49.310Z,6.31
2023-04-15T19:46:22.061Z,6.27
2023-04-15T19:48:55.555Z,6.19
2023-04-15T19:51:29.815Z,6.14
2023-04-15T19:54:02.802Z,6.04
2023-04-15T19:56:36.014Z,5.91
2023-04-15T19:59:09.270Z,5.91
2023-04-15T20:01:42.780Z,5.87
2023-04-15T20:04:15.952Z,5.75
2023-04-15T20:06:50.589Z,5.83
2023-04-15T20:09:23.084Z,5.81
2023-04-15T20:12:47.215Z,5.74
2023-04-15T20:14:49.751Z,5.75
2023-04-15T20:17:22.940Z,5.77
2023-04-15T20:19:55.484Z,5.75
2023-04-15T20:22:30.248Z,5.82
2023-04-15T20:25:03.843Z,5.90
2023-04-15T20:27:37.498Z,5.93
2023-04-15T20:30:11.067Z,5.96
2023-04-15T20:32:43.715Z,5.96
2023-04-15T20:35:16.898Z,5.96
2023-04-15T20:37:51.415Z,5.92
2023-04-15T20:40:23.990Z,5.93
2023-04-15T20:42:56.781Z,5.90
2023-04-15T20:45:29.357Z,5.89
2023-04-15T20:48:02.646Z,5.83
2023-04-15T20:50:35.204Z,5.66
2023-04-15T20:53:09.702Z,5.76
2023-04-15T20:55:43.700Z,5.71
2023-04-15T20:58:16.908Z,5.67
2023-04-15T21:00:50.370Z,5.65
2023-04-15T21:03:23.107Z,5.64
2023-04-15T21:05:56.315Z,5.65
2023-04-15T21:08:31.660Z,5.70
2023-04-15T21:11:04.789Z,5.70
2023-04-15T21:13:37.695Z,5.71
2023-04-15T21:16:10.414Z,5.81
2023-04-15T21:18:42.898Z,5.80
2023-04-15T21:21:16.233Z,5.88
2023-04-15T21:23:50.390Z,5.90
2023-04-15T21:26:22.852Z,5.90
2023-04-15T21:28:55.429Z,5.92
2023-04-15T21:31:28.244Z,5.93
2023-04-15T21:34:01.316Z,5.93
2023-04-15T21:36:34.092Z,5.93
2023-04-15T21:39:08.572Z,5.93
2023-04-15T21:41:41.180Z,5.93
2023-04-15T21:44:15.088Z,5.94
2023-04-15T21:46:47.777Z,5.93
2023-04-15T21:49:21.840Z,5.94
2023-04-15T21:51:55.248Z,5.92
2023-04-15T21:54:29.324Z,5.92
2023-04-15T21:57:02.254Z,5.91
2023-04-15T21:59:35.518Z,5.81
2023-04-15T22:02:08.141Z,5.74
2023-04-15T22:04:41.201Z,5.90
2023-04-15T22:07:14.259Z,5.91
2023-04-15T22:09:50.631Z,5.90
2023-04-15T22:12:25.903Z,5.87
2023-04-15T22:14:58.894Z,5.83
2023-04-15T22:17:31.726Z,5.83
2023-04-15T22:20:05.532Z,5.86
2023-04-15T22:22:44.208Z,5.72
2023-04-15T22:25:19.496Z,5.83
2023-04-15T22:27:53.393Z,5.81
2023-04-15T22:30:26.582Z,5.81
2023-04-15T22:33:02.577Z,5.79
2023-04-15T22:35:39.097Z,5.65
2023-04-15T22:38:15.582Z,5.63
2023-04-15T22:40:58.510Z,5.58
2023-04-15T22:43:31.724Z,5.68
2023-04-15T22:46:04.515Z,5.66
2023-04-15T22:48:37.685Z,5.67
2023-04-15T22:51:10.282Z,5.66
2023-04-15T22:53:43.367Z,5.63
2023-04-15T22:56:18.754Z,5.62
2023-04-15T22:58:51.822Z,5.59
2023-04-15T23:01:25.055Z,5.58
2023-04-15T23:04:04.030Z,5.57
2023-04-15T23:06:41.131Z,5.55
2023-04-15T23:09:14.092Z,5.54
2023-04-15T23:11:50.304Z,5.50
2023-04-15T23:14:22.788Z,5.51
2023-04-15T23:16:57.516Z,5.48
2023-04-15T23:19:30.398Z,5.44
2023-04-15T23:22:03.618Z,5.45
2023-04-15T23:24:36.675Z,5.42
2023-04-15T23:27:10.983Z,5.45
2023-04-15T23:29:43.881Z,5.43
2023-04-15T23:32:17.155Z,5.36
2023-04-15T23:34:52.426Z,5.45
2023-04-15T23:37:25.554Z,5.43
2023-04-15T23:39:58.516Z,5.47
2023-04-15T23:42:32.755Z,5.49
2023-04-15T23:45:06.167Z,5.52
2023-04-15T23:47:39.267Z,5.53
2023-04-15T23:50:12.427Z,5.52
2023-04-15T23:52:45.058Z,5.54
2023-04-15T23:55:18.474Z,5.52
2023-04-15T23:57:54.318Z,5.55
